Bookmark and Share
Track history (hours):
 

Seaspan Commander

Last reported at 2013-Jan-12 23:33 UTC. Time now 2014-Apr-21 03:13 UTC.
Position N 49°19' W 123°06'.
Warning: this ship's position is years out of date!

NotesDate/timePositionNaut miles runAvg speedWind from/ knotsBaromVisibWave heightAir tempDewpointWater temp
2013-Jan-12 23:33N 49°19' W 123°06'1 1.2
2013-Jan-12 22:33N 49°18' W 123°07'0 0.0
2013-Jan-12 21:33N 49°18' W 123°07'0 0.0
2013-Jan-12 20:33N 49°18' W 123°07'0 0.0
2013-Jan-12 19:33N 49°18' W 123°07'0 0.0
2013-Jan-12 18:33N 49°18' W 123°07'2 1.6
2013-Jan-12 17:34N 49°19' W 123°09'10 8.7
2013-Jan-12 16:27N 49°25' W 123°20'5 1.0
2013-Jan-12 11:40N 49°26' W 123°27'5 4.2
2013-Jan-12 10:33N 49°26' W 123°20'3 3.1
2013-Jan-12 09:33N 49°23' W 123°18'3 3.5
2013-Jan-12 08:33N 49°19' W 123°18'4 3.5
2013-Jan-12 07:34N 49°16' W 123°18'5 5.3
2013-Jan-12 06:33N 49°11' W 123°19'4 4.5
2013-Jan-12 05:37N 49°08' W 123°14'10 9.8
2013-Jan-12 04:33N 49°09' W 122°58'1 0.6
2013-Jan-12 03:33N 49°09' W 122°57'0 0.0
2013-Jan-12 02:29N 49°09' W 122°57'0 0.0
2013-Jan-12 01:33N 49°09' W 122°57'0 0.0
2013-Jan-11 22:33N 49°09' W 122°57'1 0.7
2013-Jan-11 21:33N 49°10' W 122°58'6 5.9
2013-Jan-11 20:33N 49°07' W 123°06'6 5.7
2013-Jan-11 19:33N 49°08' W 123°15'6 6.2
2013-Jan-11 18:33N 49°05' W 123°23'7 7.0
2013-Jan-11 17:33N 49°02' W 123°33'9 4.5
2013-Jan-11 15:27N 48°53' W 123°37'9 2.5
2013-Jan-11 11:47N 49°02' W 123°34'7 5.6
2013-Jan-11 10:33N 49°05' W 123°24'5 5.4
2013-Jan-11 09:33N 49°07' W 123°17'5 4.6
2013-Jan-11 08:33N 49°07' W 123°10'6 5.8
2013-Jan-11 07:33N 49°09' W 123°02'3 2.9
2013-Jan-11 06:33N 49°09' W 122°57'0 0.0
2013-Jan-11 05:36N 49°09' W 122°57'0 0.0
2013-Jan-11 04:33N 49°09' W 122°57'0 0.0
2013-Jan-11 03:32N 49°09' W 122°57'0 0.0
2013-Jan-11 02:33N 49°09' W 122°57'0 0.0
2013-Jan-11 01:28N 49°09' W 122°57'1 0.7
2013-Jan-11 00:34N 49°09' W 122°58'2 2.0
2013-Jan-10 23:33N 49°09' W 123°01'2 2.5
2013-Jan-10 22:33N 49°07' W 123°04'4 3.5
2013-Jan-10 21:34N 49°07' W 123°09'6 6.0
2013-Jan-10 20:34N 49°06' W 123°19'7 7.0
2013-Jan-10 19:33N 49°03' W 123°28'13 6.0
2013-Jan-10 17:29N 48°52' W 123°38'0 0.4
2013-Jan-10 16:24N 48°52' W 123°38'0 0.5
2013-Jan-10 15:33N 48°52' W 123°38'0 0.2
2013-Jan-10 13:33N 48°53' W 123°38'1 1.2
2013-Jan-10 12:25N 48°53' W 123°37'9 5.0
2013-Jan-10 10:33N 49°02' W 123°34'4 3.9
2013-Jan-10 09:32N 49°06' W 123°37'0 0.3
2013-Jan-10 08:33N 49°06' W 123°37'3 3.1
2013-Jan-10 07:33N 49°03' W 123°34'3 2.7
2013-Jan-10 06:33N 49°03' W 123°30'4 4.1
2013-Jan-10 05:36N 49°05' W 123°24'7 7.0
2013-Jan-10 04:34N 49°08' W 123°14'8 7.5
2013-Jan-10 03:33N 49°09' W 123°02'3 3.2
2013-Jan-10 02:33N 49°09' W 122°58'0 0.0
2013-Jan-10 01:28N 49°10' W 122°58'0 0.0
2013-Jan-09 23:33N 49°10' W 122°58'2 1.1
2013-Jan-09 21:33N 49°09' W 123°01'6 6.3
2013-Jan-09 20:33N 49°07' W 123°10'6 5.7
2013-Jan-09 19:33N 49°06' W 123°19'7 7.3
2013-Jan-09 18:34N 49°08' W 123°29'8 7.9
2013-Jan-09 17:33N 49°12' W 123°40'8 7.8
2013-Jan-09 16:32N 49°12' W 123°53'3 3.0
2013-Jan-09 15:26N 49°09' W 123°51'1 1.0
2013-Jan-09 14:32N 49°10' W 123°52'2 1.8
2013-Jan-09 13:32N 49°11' W 123°53'3 3.3
2013-Jan-09 12:33N 49°13' W 123°49'5 5.3
2013-Jan-09 11:37N 49°14' W 123°41'5 5.1
2013-Jan-09 10:33N 49°14' W 123°33'5 4.5
2013-Jan-09 09:33N 49°15' W 123°26'4 4.4
2013-Jan-09 08:33N 49°16' W 123°19'3 2.5
2013-Jan-09 07:33N 49°13' W 123°18'6 6.1
2013-Jan-09 06:34N 49°07' W 123°20'3 5.0
2013-Jan-09 05:53N 49°08' W 123°15'9 7.0
2013-Jan-09 04:33N 49°09' W 123°01'1 0.9
2013-Jan-09 03:33N 49°09' W 122°59'5 5.2
2013-Jan-09 02:33N 49°07' W 123°06'5 5.1
2013-Jan-09 01:34N 49°08' W 123°14'4 3.8
2013-Jan-09 00:33N 49°09' W 123°19'9 8.7
2013-Jan-08 23:33N 49°18' W 123°15'6 5.9
2013-Jan-08 22:33N 49°19' W 123°06'0 0.0
2013-Jan-08 21:33N 49°19' W 123°06'0 0.0
2013-Jan-08 20:34N 49°19' W 123°06'0 0.0
2013-Jan-08 19:33N 49°19' W 123°06'0 0.2
2013-Jan-08 18:33N 49°19' W 123°06'6 5.6
2013-Jan-08 17:33N 49°17' W 122°58'4 3.6
2013-Jan-08 16:33N 49°18' W 123°03'2 2.2
2013-Jan-08 15:33N 49°19' W 123°06'0 0.0
2013-Jan-08 14:33N 49°19' W 123°06'0 0.0
2013-Jan-08 13:33N 49°19' W 123°06'3 2.6
2013-Jan-08 12:33N 49°19' W 123°10'3 3.7
2013-Jan-08 11:38N 49°18' W 123°16'5 5.0
2013-Jan-08 10:34N 49°13' W 123°19'4 4.5
2013-Jan-08 09:33N 49°09' W 123°20'5 5.1
2013-Jan-08 08:33N 49°04' W 123°19'8 7.7
2013-Jan-08 07:33N 48°59' W 123°10'8 7.9
2013-Jan-08 06:33N 48°53' W 123°01'21 7.0
2013-Jan-08 03:33N 48°38' W 122°39'6 6.3
2013-Jan-08 02:33N 48°33' W 122°34'2 2.2
2013-Jan-08 01:33N 48°31' W 122°35'0 0.1
2013-Jan-08 00:33N 48°31' W 122°35'0 0.0
2013-Jan-07 23:33N 48°31' W 122°35'0 0.0
2013-Jan-07 22:33N 48°31' W 122°35'0 0.0
2013-Jan-07 21:33N 48°31' W 122°35'0 0.0
2013-Jan-07 20:33N 48°31' W 122°35'0 0.0
2013-Jan-07 19:33N 48°31' W 122°35'0 0.0
2013-Jan-07 18:33N 48°31' W 122°35'0 0.0
2013-Jan-07 17:33N 48°31' W 122°35'0 0.0
2013-Jan-07 16:33N 48°31' W 122°35'0 0.0
2013-Jan-07 15:33N 48°31' W 122°35'0 0.0
2013-Jan-07 14:33N 48°31' W 122°35'0 0.0
2013-Jan-07 13:33N 48°31' W 122°35'0 0.0
2013-Jan-07 12:33N 48°31' W 122°35'0 0.0
2013-Jan-07 11:35N 48°31' W 122°35'0 0.0
2013-Jan-07 10:33N 48°31' W 122°35'0 0.0
2013-Jan-07 09:33N 48°31' W 122°35'0 0.1
2013-Jan-07 08:34N 48°31' W 122°35'3 2.5
2013-Jan-07 07:33N 48°33' W 122°35'6 6.1
2013-Jan-07 06:33N 48°38' W 122°39'6 5.8
2013-Jan-07 05:36N 48°42' W 122°45'7 6.3
2013-Jan-07 04:33N 48°47' W 122°52'7 7.3
2013-Jan-07 03:33N 48°51' W 123°02'8 7.8
2013-Jan-07 02:33N 48°56' W 123°11'8 7.9
2013-Jan-07 01:33N 49°01' W 123°20'7 6.9
2013-Jan-07 00:33N 49°07' W 123°24'8 7.9
2013-Jan-06 23:33N 49°15' W 123°21'7 6.7
2013-Jan-06 22:33N 49°19' W 123°13'4 4.1
2013-Jan-06 21:33N 49°19' W 123°06'0 0.1
2013-Jan-06 20:33N 49°19' W 123°06'0 0.0
2013-Jan-06 19:33N 49°19' W 123°06'0 0.0
2013-Jan-06 18:33N 49°19' W 123°06'0 0.0
2013-Jan-04 19:34N 49°19' W 123°06'0 0.0
2013-Jan-04 18:33N 49°19' W 123°06'0 0.5
2013-Jan-04 17:34N 49°18' W 123°06'3 3.3
2013-Jan-04 16:33N 49°19' W 123°11'4 3.8
2013-Jan-04 15:33N 49°18' W 123°17'4 3.9
2013-Jan-04 14:33N 49°14' W 123°18'4 3.8
2013-Jan-04 13:33N 49°10' W 123°19'3 3.2
2013-Jan-04 12:33N 49°07' W 123°20'2 2.5
2013-Jan-04 11:39N 49°05' W 123°20'4 3.3
2013-Jan-04 10:34N 49°02' W 123°17'3 3.2
2013-Jan-04 09:34N 48°60' W 123°13'3 3.0
2013-Jan-04 08:33N 48°58' W 123°09'3 2.8
2013-Jan-04 07:33N 48°56' W 123°06'3 2.9
2013-Jan-04 06:33N 48°54' W 123°03'3 3.0
2013-Jan-04 05:36N 48°52' W 122°60'4 3.9
2013-Jan-04 04:33N 48°50' W 122°55'4 4.1
2013-Jan-04 03:32N 48°47' W 122°50'4 4.5
2013-Jan-04 02:33N 48°44' W 122°45'5 5.1
2013-Jan-04 01:33N 48°40' W 122°41'5 5.2
2013-Jan-04 00:33N 48°36' W 122°36'5 5.0
2013-Jan-03 23:33N 48°31' W 122°35'0 0.2
2013-Jan-03 22:33N 48°31' W 122°35'0 0.0
2013-Jan-03 21:33N 48°31' W 122°35'0 0.0
2013-Jan-03 20:33N 48°31' W 122°35'0 0.0
2013-Jan-03 19:34N 48°31' W 122°35'0 0.0
2013-Jan-03 18:33N 48°31' W 122°35'0 0.0
2013-Jan-03 17:33N 48°31' W 122°35'0 0.0
2013-Jan-03 16:33N 48°31' W 122°35'0 0.0
2013-Jan-03 15:33N 48°31' W 122°35'0 0.2
2013-Jan-03 14:33N 48°31' W 122°35'3 3.0
2013-Jan-03 13:33N 48°34' W 122°35'4 4.1
2013-Jan-03 12:33N 48°37' W 122°38'4 4.5
2013-Jan-03 11:37N 48°40' W 122°43'5 5.0
2013-Jan-03 10:33N 48°44' W 122°47'5 4.9
2013-Jan-03 09:33N 48°47' W 122°53'5 5.5
2013-Jan-03 08:33N 48°50' W 123°00'5 5.4
2013-Jan-03 07:34N 48°53' W 123°07'7 7.1
2013-Jan-03 06:33N 48°58' W 123°15'8 8.4
2013-Jan-03 05:35N 49°04' W 123°24'8 8.1
2013-Jan-03 04:33N 49°12' W 123°22'8 7.5
2013-Jan-03 03:33N 49°19' W 123°17'7 6.7
2013-Jan-03 02:34N 49°18' W 123°06'0 0.4
2013-Jan-03 01:33N 49°19' W 123°06'0 0.0
2013-Jan-03 00:34N 49°19' W 123°06'  

Dump ship's entire track history

sailing weather and tide predictions

Seaspan Commander — VCZQ — position and weather